Time;durP1;ratioP1;P1;durP2;ratioP2;P2;SDS_P1;SDS_P2;PMS_P1;PMS_P2;Temp;Humidity;BMP_temperature;BMP_pressure;BME280_temperature;BME280_humidity;BME280_pressure;Samples;Min_cycle;Max_cycle;Signal;HPM_P1;HPM_P2
2022/12/31 00:02:06;;;;;;;0.20;0.20;;;;;;;;;;4527255;28;20036;-59
2022/12/31 00:04:17;;;;;;;0.10;0.10;;;;;;;;;;4528259;28;20044;-60
2022/12/31 00:06:31;;;;;;;0.13;0.10;;;;;;;;;;4527668;28;20076;-60
2022/12/31 00:08:42;;;;;;;0.15;0.10;;;;;;;;;;4527494;28;20040;-60
2022/12/31 00:10:52;;;;;;;0.20;0.20;;;;;;;;;;4528364;28;20044;-60
2022/12/31 00:13:03;;;;;;;0.13;0.13;;;;;;;;;;4528772;28;20211;-60
2022/12/31 00:15:13;;;;;;;0.10;0.10;;;;;;;;;;4528237;28;20053;-60
2022/12/31 00:17:23;;;;;;;0.10;0.10;;;;;;;;;;4528504;28;20112;-60
2022/12/31 00:19:34;;;;;;;0.20;0.20;;;;;;;;;;4528291;28;20116;-60
2022/12/31 00:21:44;;;;;;;0.13;0.13;;;;;;;;;;4528053;28;20041;-59
2022/12/31 00:23:54;;;;;;;0.10;0.10;;;;;;;;;;4527833;28;20455;-60
2022/12/31 00:26:06;;;;;;;0.10;0.10;;;;;;;;;;4528607;28;20129;-60
2022/12/31 00:28:16;;;;;;;0.20;0.20;;;;;;;;;;4527332;28;20038;-58
2022/12/31 00:30:27;;;;;;;0.20;0.20;;;;;;;;;;4529268;28;20029;-60
2022/12/31 00:32:37;;;;;;;0.10;0.10;;;;;;;;;;4528007;28;20461;-60
2022/12/31 00:34:47;;;;;;;0.10;0.10;;;;;;;;;;4527919;28;20429;-59
2022/12/31 00:36:58;;;;;;;0.20;0.20;;;;;;;;;;4528503;28;20034;-59
2022/12/31 00:39:09;;;;;;;0.15;0.15;;;;;;;;;;4529062;28;20524;-59
2022/12/31 00:41:20;;;;;;;0.17;0.17;;;;;;;;;;4529672;28;20038;-59
2022/12/31 00:43:30;;;;;;;0.15;0.15;;;;;;;;;;4528733;28;20033;-60
2022/12/31 00:45:41;;;;;;;0.28;0.28;;;;;;;;;;4529585;28;20385;-60
2022/12/31 00:47:51;;;;;;;0.20;0.20;;;;;;;;;;4533723;28;20044;-60
2022/12/31 00:50:01;;;;;;;0.20;0.10;;;;;;;;;;4526377;28;20054;-59
2022/12/31 00:52:14;;;;;;;0.10;0.10;;;;;;;;;;4531767;28;20168;-60
2022/12/31 00:54:24;;;;;;;0.10;0.10;;;;;;;;;;4528364;28;20037;-60
2022/12/31 00:56:35;;;;;;;0.13;0.13;;;;;;;;;;4528485;28;20048;-59
2022/12/31 00:58:45;;;;;;;0.20;0.20;;;;;;;;;;4528318;28;20568;-61
2022/12/31 01:00:56;;;;;;;0.20;0.20;;;;;;;;;;4530307;28;20041;-59
2022/12/31 01:03:07;;;;;;;0.10;0.10;;;;;;;;;;4525601;28;20417;-59
2022/12/31 01:05:17;;;;;;;0.10;0.10;;;;;;;;;;4527229;28;21496;-60
2022/12/31 01:07:27;;;;;;;0.10;0.10;;;;;;;;;;4528146;28;20029;-59
2022/12/31 01:09:38;;;;;;;0.10;0.10;;;;;;;;;;4529203;28;20033;-60
2022/12/31 01:11:49;;;;;;;0.15;0.15;;;;;;;;;;4528359;28;20040;-59
2022/12/31 01:14:00;;;;;;;0.20;0.20;;;;;;;;;;4528001;28;20033;-59
2022/12/31 01:16:12;;;;;;;0.20;0.10;;;;;;;;;;4529000;28;20037;-59
2022/12/31 01:18:22;;;;;;;0.10;0.10;;;;;;;;;;4529770;28;20034;-59
2022/12/31 01:20:36;;;;;;;0.20;0.20;;;;;;;;;;4527329;28;20036;-59
2022/12/31 01:22:47;;;;;;;0.10;0.10;;;;;;;;;;4528494;28;20053;-60
2022/12/31 01:24:57;;;;;;;0.10;0.10;;;;;;;;;;4519528;28;20026;-60
2022/12/31 01:27:07;;;;;;;0.10;0.10;;;;;;;;;;4527177;28;20121;-60
2022/12/31 01:29:18;;;;;;;0.10;0.10;;;;;;;;;;4527456;28;20041;-59
2022/12/31 01:31:28;;;;;;;0.10;0.10;;;;;;;;;;4527648;28;20041;-60
2022/12/31 01:33:38;;;;;;;0.15;0.15;;;;;;;;;;4532368;28;20108;-60
2022/12/31 01:35:49;;;;;;;0.13;0.13;;;;;;;;;;4527558;28;20046;-60
2022/12/31 01:37:59;;;;;;;0.10;0.10;;;;;;;;;;4528255;28;20049;-62
2022/12/31 01:40:09;;;;;;;0.20;0.20;;;;;;;;;;4527395;28;20037;-60
2022/12/31 01:42:20;;;;;;;0.15;0.10;;;;;;;;;;4527487;28;20079;-60
2022/12/31 01:44:30;;;;;;;0.25;0.20;;;;;;;;;;4527378;28;20037;-59
2022/12/31 01:46:42;;;;;;;0.10;0.10;;;;;;;;;;4542681;28;20048;-59
2022/12/31 01:48:55;;;;;;;0.47;0.10;;;;;;;;;;4526501;28;20029;-59
2022/12/31 01:51:06;;;;;;;0.10;0.10;;;;;;;;;;4525770;28;20283;-60
2022/12/31 01:53:17;;;;;;;0.17;0.10;;;;;;;;;;4527393;28;20033;-59
2022/12/31 01:55:29;;;;;;;0.10;0.10;;;;;;;;;;4527593;28;20029;-59
2022/12/31 01:57:40;;;;;;;0.10;0.10;;;;;;;;;;4527825;28;20053;-59
2022/12/31 01:59:51;;;;;;;0.20;0.20;;;;;;;;;;4527171;28;20049;-60
2022/12/31 02:02:02;;;;;;;0.10;0.10;;;;;;;;;;4528147;28;20102;-59
2022/12/31 02:04:14;;;;;;;0.10;0.10;;;;;;;;;;4526179;28;20086;-60
2022/12/31 02:06:27;;;;;;;0.10;0.10;;;;;;;;;;4528061;28;20066;-60
2022/12/31 02:08:38;;;;;;;0.10;0.10;;;;;;;;;;4526888;28;20175;-59
2022/12/31 02:10:48;;;;;;;0.10;0.10;;;;;;;;;;4527423;28;20095;-59
2022/12/31 02:12:58;;;;;;;0.10;0.10;;;;;;;;;;4526326;28;20044;-60
2022/12/31 02:15:09;;;;;;;0.38;0.10;;;;;;;;;;4535327;28;20513;-60
2022/12/31 02:17:38;;;;;;;0.20;0.20;;;;;;;;;;4527460;28;20795;-60
2022/12/31 02:19:51;;;;;;;0.20;0.20;;;;;;;;;;4526860;28;20501;-60
2022/12/31 02:22:14;;;;;;;0.15;0.15;;;;;;;;;;4527541;28;20030;-59
2022/12/31 02:24:32;;;;;;;0.20;0.20;;;;;;;;;;4528680;28;20073;-61
2022/12/31 02:27:15;;;;;;;0.10;0.10;;;;;;;;;;4527879;28;20037;-59
2022/12/31 02:29:38;;;;;;;0.10;0.10;;;;;;;;;;4492554;28;20057;-60
2022/12/31 02:31:50;;;;;;;0.10;0.10;;;;;;;;;;4526499;28;20037;-60
2022/12/31 02:34:05;;;;;;;0.10;0.10;;;;;;;;;;4527960;28;20686;-59
2022/12/31 02:36:18;;;;;;;0.10;0.10;;;;;;;;;;4527247;28;20628;-60
2022/12/31 02:38:31;;;;;;;0.10;0.10;;;;;;;;;;4526434;28;20096;-59
2022/12/31 02:40:42;;;;;;;0.10;0.10;;;;;;;;;;4525193;28;20040;-59
2022/12/31 02:42:52;;;;;;;0.10;0.10;;;;;;;;;;4527208;28;20052;-59
2022/12/31 02:45:03;;;;;;;0.10;0.00;;;;;;;;;;4526574;28;20056;-59
2022/12/31 02:47:22;;;;;;;0.15;0.15;;;;;;;;;;4527322;28;20040;-59
2022/12/31 02:49:38;;;;;;;0.00;0.00;;;;;;;;;;4526008;28;20042;-59
2022/12/31 02:52:01;;;;;;;0.10;0.10;;;;;;;;;;4526466;28;20557;-60
2022/12/31 02:54:26;;;;;;;0.10;0.10;;;;;;;;;;4527166;28;20041;-60
2022/12/31 02:56:42;;;;;;;0.00;0.00;;;;;;;;;;4526081;28;20041;-60
2022/12/31 03:04:30;;;;;;;0.10;0.10;;;;;;;;;;4526765;28;20037;-59
2022/12/31 03:06:33;;;;;;;0.10;0.10;;;;;;;;;;4526033;28;20044;-59
2022/12/31 03:12:44;;;;;;;0.10;0.10;;;;;;;;;;4527423;28;20258;-60
2022/12/31 03:13:43;;;;;;;0.13;0.13;;;;;;;;;;4525965;28;20115;-59
2022/12/31 03:15:53;;;;;;;0.10;0.10;;;;;;;;;;4526586;28;20115;-59
2022/12/31 03:18:08;;;;;;;0.00;0.00;;;;;;;;;;4525129;28;20610;-60
2022/12/31 03:22:53;;;;;;;0.08;0.08;;;;;;;;;;4508671;28;20047;-59
2022/12/31 03:27:37;;;;;;;0.00;0.00;;;;;;;;;;4525762;28;20512;-59
2022/12/31 03:29:48;;;;;;;0.15;0.10;;;;;;;;;;4525531;28;20013;-60
2022/12/31 03:31:58;;;;;;;0.05;0.05;;;;;;;;;;4525848;28;20386;-59
2022/12/31 03:34:08;;;;;;;0.00;0.00;;;;;;;;;;4527224;28;20044;-59
2022/12/31 03:36:18;;;;;;;0.00;0.00;;;;;;;;;;4531698;28;20048;-60
2022/12/31 03:38:29;;;;;;;0.10;0.10;;;;;;;;;;4525197;28;20052;-59
2022/12/31 03:40:40;;;;;;;0.03;0.03;;;;;;;;;;4525955;28;20021;-59
2022/12/31 03:42:51;;;;;;;0.10;0.10;;;;;;;;;;4524761;28;20033;-60
2022/12/31 03:45:01;;;;;;;0.10;0.10;;;;;;;;;;4525492;28;20034;-59
2022/12/31 03:47:12;;;;;;;0.10;0.10;;;;;;;;;;4525675;28;20509;-59
2022/12/31 03:49:22;;;;;;;0.00;0.00;;;;;;;;;;4526167;28;20109;-59
2022/12/31 03:51:33;;;;;;;0.10;0.10;;;;;;;;;;4525851;28;20159;-59
2022/12/31 03:53:44;;;;;;;0.20;0.10;;;;;;;;;;4527175;28;20160;-59
2022/12/31 03:55:54;;;;;;;0.75;0.55;;;;;;;;;;4529241;28;20069;-60
2022/12/31 03:58:05;;;;;;;0.30;0.30;;;;;;;;;;4529379;28;20123;-59
2022/12/31 04:00:17;;;;;;;0.50;0.50;;;;;;;;;;4528053;28;20025;-59
2022/12/31 04:02:27;;;;;;;1.40;0.70;;;;;;;;;;4527251;28;21156;-60
2022/12/31 04:04:38;;;;;;;0.35;0.20;;;;;;;;;;4528395;28;20037;-60
2022/12/31 04:06:48;;;;;;;0.13;0.13;;;;;;;;;;4529224;28;20037;-59
2022/12/31 04:08:58;;;;;;;0.10;0.10;;;;;;;;;;4526712;28;20033;-58
2022/12/31 04:11:09;;;;;;;0.10;0.10;;;;;;;;;;4528169;28;20040;-60
2022/12/31 04:13:19;;;;;;;0.10;0.10;;;;;;;;;;4528380;28;20300;-60
2022/12/31 04:15:29;;;;;;;0.10;0.10;;;;;;;;;;4529222;28;20482;-60
2022/12/31 04:17:39;;;;;;;0.10;0.10;;;;;;;;;;4528766;28;20025;-60
2022/12/31 04:19:50;;;;;;;0.10;0.10;;;;;;;;;;4527563;28;20039;-59
2022/12/31 04:22:00;;;;;;;0.10;0.10;;;;;;;;;;4532196;28;20039;-60
2022/12/31 04:24:10;;;;;;;0.13;0.10;;;;;;;;;;4527704;28;20046;-59
2022/12/31 04:26:21;;;;;;;0.10;0.10;;;;;;;;;;4529739;28;20513;-59
2022/12/31 04:28:31;;;;;;;0.10;0.10;;;;;;;;;;4527608;28;20700;-59
2022/12/31 04:30:42;;;;;;;0.10;0.10;;;;;;;;;;4527026;28;20025;-59
2022/12/31 04:32:52;;;;;;;0.10;0.10;;;;;;;;;;4527843;28;20057;-59
2022/12/31 04:35:02;;;;;;;0.10;0.10;;;;;;;;;;4527314;28;20429;-59
2022/12/31 04:37:13;;;;;;;0.00;0.00;;;;;;;;;;4526002;28;20033;-60
2022/12/31 04:39:23;;;;;;;0.00;0.00;;;;;;;;;;4529471;28;20041;-59
2022/12/31 04:41:33;;;;;;;0.30;0.10;;;;;;;;;;4528351;28;20622;-59
2022/12/31 04:43:45;;;;;;;0.10;0.10;;;;;;;;;;4528062;28;20037;-60
2022/12/31 04:45:55;;;;;;;0.10;0.10;;;;;;;;;;4529647;28;20043;-59
2022/12/31 04:48:05;;;;;;;0.03;0.03;;;;;;;;;;4528139;28;20064;-59
2022/12/31 04:50:16;;;;;;;0.03;0.00;;;;;;;;;;4526037;28;20785;-60
2022/12/31 04:52:26;;;;;;;0.10;0.10;;;;;;;;;;4527388;28;20040;-59
2022/12/31 04:54:36;;;;;;;0.00;0.00;;;;;;;;;;4529302;28;20033;-59
2022/12/31 04:56:48;;;;;;;0.13;0.10;;;;;;;;;;4529194;28;20162;-59
2022/12/31 04:58:58;;;;;;;0.00;0.00;;;;;;;;;;4527152;28;20095;-59
2022/12/31 05:01:08;;;;;;;0.00;0.00;;;;;;;;;;4528035;28;20046;-59
2022/12/31 05:03:19;;;;;;;0.10;0.10;;;;;;;;;;4526172;28;20033;-59
2022/12/31 05:05:29;;;;;;;0.00;0.00;;;;;;;;;;4526960;28;20033;-60
2022/12/31 05:07:40;;;;;;;0.00;0.00;;;;;;;;;;4527706;28;20130;-60
2022/12/31 05:09:50;;;;;;;0.10;0.10;;;;;;;;;;4528875;28;20034;-60
2022/12/31 05:12:00;;;;;;;0.00;0.00;;;;;;;;;;4528509;28;20034;-59
2022/12/31 05:14:10;;;;;;;0.10;0.10;;;;;;;;;;4528846;28;20499;-60
2022/12/31 05:16:21;;;;;;;0.10;0.10;;;;;;;;;;4529128;28;20504;-60
2022/12/31 05:18:31;;;;;;;0.10;0.10;;;;;;;;;;4527811;28;20048;-60
2022/12/31 05:20:42;;;;;;;0.10;0.10;;;;;;;;;;4526867;28;20030;-59
2022/12/31 05:22:52;;;;;;;0.00;0.00;;;;;;;;;;4527000;28;20051;-60
2022/12/31 05:25:02;;;;;;;0.10;0.10;;;;;;;;;;4526699;28;20037;-59
2022/12/31 05:27:13;;;;;;;0.10;0.10;;;;;;;;;;4528160;28;20041;-60
2022/12/31 05:29:23;;;;;;;0.03;0.03;;;;;;;;;;4526652;28;20032;-60
2022/12/31 05:31:33;;;;;;;0.00;0.00;;;;;;;;;;4528501;28;20045;-60
2022/12/31 05:33:43;;;;;;;0.10;0.10;;;;;;;;;;4527007;28;20045;-60
2022/12/31 05:35:56;;;;;;;0.10;0.10;;;;;;;;;;4527354;28;20037;-60
2022/12/31 05:38:07;;;;;;;0.17;0.17;;;;;;;;;;4526284;28;20060;-60
2022/12/31 05:40:17;;;;;;;0.20;0.20;;;;;;;;;;4535575;28;20443;-60
2022/12/31 05:42:27;;;;;;;0.20;0.20;;;;;;;;;;4525238;28;20485;-59
2022/12/31 05:44:38;;;;;;;0.20;0.20;;;;;;;;;;4526983;28;20120;-60
2022/12/31 05:46:48;;;;;;;1.08;1.08;;;;;;;;;;4528245;28;20037;-60
2022/12/31 05:48:59;;;;;;;0.20;0.10;;;;;;;;;;4526492;28;20133;-60
2022/12/31 05:51:10;;;;;;;0.17;0.17;;;;;;;;;;4529379;28;20051;-60
2022/12/31 05:53:20;;;;;;;0.10;0.10;;;;;;;;;;4528786;28;20033;-60
2022/12/31 05:55:30;;;;;;;0.30;0.30;;;;;;;;;;4527241;28;20045;-60
2022/12/31 05:57:40;;;;;;;0.20;0.20;;;;;;;;;;4527050;28;20037;-60
2022/12/31 05:59:52;;;;;;;0.15;0.15;;;;;;;;;;4526066;28;20084;-60
2022/12/31 06:02:02;;;;;;;0.20;0.20;;;;;;;;;;4526485;28;20108;-59
2022/12/31 06:04:12;;;;;;;0.10;0.10;;;;;;;;;;4532471;28;20047;-60
2022/12/31 06:06:23;;;;;;;0.20;0.20;;;;;;;;;;4526528;28;20583;-59
2022/12/31 06:08:33;;;;;;;0.10;0.10;;;;;;;;;;4527640;28;20112;-60
2022/12/31 06:10:43;;;;;;;0.30;0.20;;;;;;;;;;4527064;28;20041;-60
2022/12/31 06:12:54;;;;;;;0.10;0.10;;;;;;;;;;4526676;28;20072;-59
2022/12/31 06:15:04;;;;;;;0.20;0.20;;;;;;;;;;4525694;28;20898;-60
2022/12/31 06:17:15;;;;;;;0.10;0.10;;;;;;;;;;4525760;28;20042;-59
2022/12/31 06:19:25;;;;;;;0.10;0.10;;;;;;;;;;4526157;28;20041;-59
2022/12/31 06:21:36;;;;;;;0.20;0.20;;;;;;;;;;4526315;28;20059;-59
2022/12/31 06:23:47;;;;;;;0.20;0.20;;;;;;;;;;4526745;28;20311;-60
2022/12/31 06:26:06;;;;;;;0.10;0.10;;;;;;;;;;4528160;28;20188;-59
2022/12/31 06:28:17;;;;;;;0.10;0.10;;;;;;;;;;4524953;28;20092;-59
2022/12/31 06:30:27;;;;;;;0.10;0.10;;;;;;;;;;4525147;28;20034;-59
2022/12/31 06:32:39;;;;;;;0.10;0.10;;;;;;;;;;4527192;28;20750;-60
2022/12/31 06:34:49;;;;;;;0.10;0.10;;;;;;;;;;4524337;28;20179;-60
2022/12/31 06:37:00;;;;;;;0.20;0.20;;;;;;;;;;4531651;28;20234;-60
2022/12/31 06:39:10;;;;;;;0.20;0.20;;;;;;;;;;4525925;28;20106;-59
2022/12/31 06:41:20;;;;;;;0.10;0.10;;;;;;;;;;4526423;28;20080;-60
2022/12/31 06:43:31;;;;;;;0.17;0.17;;;;;;;;;;4525689;28;20046;-60
2022/12/31 06:45:41;;;;;;;0.17;0.10;;;;;;;;;;4528183;28;20041;-59
2022/12/31 06:47:51;;;;;;;0.20;0.20;;;;;;;;;;4527103;28;20025;-60
2022/12/31 06:50:02;;;;;;;0.20;0.20;;;;;;;;;;4526251;28;20040;-60
2022/12/31 06:52:12;;;;;;;0.10;0.10;;;;;;;;;;4526338;28;20041;-60
2022/12/31 06:54:22;;;;;;;0.10;0.10;;;;;;;;;;4526802;28;20723;-61
2022/12/31 06:56:33;;;;;;;0.25;0.10;;;;;;;;;;4527064;28;20025;-60
2022/12/31 06:58:43;;;;;;;0.20;0.20;;;;;;;;;;4526284;28;20044;-60
2022/12/31 07:01:04;;;;;;;0.10;0.10;;;;;;;;;;4525427;28;20041;-62
2022/12/31 07:03:21;;;;;;;0.20;0.17;;;;;;;;;;4527280;28;20037;-60
2022/12/31 07:05:38;;;;;;;0.68;0.20;;;;;;;;;;4525674;28;20153;-60
2022/12/31 07:08:14;;;;;;;0.17;0.17;;;;;;;;;;4526623;28;20204;-60
2022/12/31 07:10:31;;;;;;;0.10;0.10;;;;;;;;;;4520959;28;20667;-60
2022/12/31 07:12:47;;;;;;;0.10;0.10;;;;;;;;;;4525687;28;20498;-59
2022/12/31 07:15:10;;;;;;;0.20;0.20;;;;;;;;;;4527217;28;20052;-60
2022/12/31 07:17:23;;;;;;;0.10;0.10;;;;;;;;;;4526245;28;20040;-60
2022/12/31 07:19:45;;;;;;;0.25;0.20;;;;;;;;;;4525755;28;20049;-59
2022/12/31 07:21:57;;;;;;;0.10;0.10;;;;;;;;;;4526510;28;20061;-60
2022/12/31 07:24:08;;;;;;;0.10;0.10;;;;;;;;;;4524984;28;20129;-60
2022/12/31 07:26:21;;;;;;;0.10;0.10;;;;;;;;;;4526296;28;20576;-60
2022/12/31 07:28:38;;;;;;;0.10;0.10;;;;;;;;;;4531948;28;20033;-60
2022/12/31 07:30:56;;;;;;;0.10;0.10;;;;;;;;;;4528947;28;20038;-60
2022/12/31 07:33:10;;;;;;;0.10;0.10;;;;;;;;;;4531078;28;20899;-60
2022/12/31 07:35:25;;;;;;;0.17;0.08;;;;;;;;;;4528106;28;20038;-60
2022/12/31 07:37:56;;;;;;;0.10;0.10;;;;;;;;;;4528010;28;20041;-59
2022/12/31 07:40:21;;;;;;;0.10;0.10;;;;;;;;;;4521686;28;20063;-62
2022/12/31 07:42:35;;;;;;;0.10;0.10;;;;;;;;;;4528118;28;20072;-60
2022/12/31 07:44:53;;;;;;;0.20;0.20;;;;;;;;;;4527873;28;20666;-59
2022/12/31 07:47:12;;;;;;;0.10;0.10;;;;;;;;;;4527689;28;20108;-59
2022/12/31 07:49:23;;;;;;;0.20;0.15;;;;;;;;;;4527182;28;20784;-59
2022/12/31 07:51:33;;;;;;;0.10;0.10;;;;;;;;;;4527953;28;20386;-59
2022/12/31 07:53:44;;;;;;;0.10;0.10;;;;;;;;;;4526067;28;20033;-59
2022/12/31 07:55:56;;;;;;;0.22;0.10;;;;;;;;;;4527957;28;20769;-59
2022/12/31 07:58:18;;;;;;;0.10;0.10;;;;;;;;;;4543432;28;20132;-60
2022/12/31 08:00:29;;;;;;;0.10;0.10;;;;;;;;;;4527826;28;20036;-61
2022/12/31 08:02:45;;;;;;;0.10;0.10;;;;;;;;;;4527586;28;20042;-59
2022/12/31 08:05:02;;;;;;;0.20;0.10;;;;;;;;;;4526918;28;20079;-58
2022/12/31 08:07:16;;;;;;;0.10;0.10;;;;;;;;;;4527602;28;20033;-59
2022/12/31 08:09:29;;;;;;;0.28;0.20;;;;;;;;;;4541979;28;20055;-58
2022/12/31 08:11:52;;;;;;;0.30;0.20;;;;;;;;;;4528519;28;20033;-59
2022/12/31 08:14:02;;;;;;;0.10;0.10;;;;;;;;;;4543249;28;20651;-59
2022/12/31 08:16:12;;;;;;;0.10;0.10;;;;;;;;;;4528224;28;20129;-59
2022/12/31 08:18:23;;;;;;;0.32;0.10;;;;;;;;;;4536444;28;20040;-59
2022/12/31 08:20:38;;;;;;;0.20;0.20;;;;;;;;;;4526636;28;20127;-59
2022/12/31 08:23:12;;;;;;;0.20;0.20;;;;;;;;;;4527911;28;20045;-59
2022/12/31 08:25:31;;;;;;;0.30;0.30;;;;;;;;;;4527687;28;20091;-59
2022/12/31 08:27:41;;;;;;;0.20;0.10;;;;;;;;;;4508436;28;20042;-59
2022/12/31 08:29:52;;;;;;;0.45;0.13;;;;;;;;;;4526137;28;20212;-59
2022/12/31 08:32:06;;;;;;;0.35;0.17;;;;;;;;;;4526155;28;20036;-59
2022/12/31 08:34:22;;;;;;;0.38;0.17;;;;;;;;;;4527381;28;20604;-59
2022/12/31 08:36:35;;;;;;;0.57;0.20;;;;;;;;;;4525749;28;20579;-59
2022/12/31 08:38:45;;;;;;;0.10;0.10;;;;;;;;;;4525468;28;20152;-59
2022/12/31 08:41:07;;;;;;;0.28;0.20;;;;;;;;;;4525508;28;20373;-59
2022/12/31 08:43:24;;;;;;;0.28;0.20;;;;;;;;;;4541700;28;20045;-59
2022/12/31 08:45:36;;;;;;;0.80;0.30;;;;;;;;;;4526648;28;20035;-59
2022/12/31 08:48:01;;;;;;;0.20;0.20;;;;;;;;;;4524139;28;20038;-59
2022/12/31 08:50:12;;;;;;;0.20;0.20;;;;;;;;;;4526730;28;20139;-59
2022/12/31 08:52:24;;;;;;;0.20;0.20;;;;;;;;;;4527166;28;20685;-59
2022/12/31 08:54:34;;;;;;;0.40;0.20;;;;;;;;;;4526302;28;20029;-59
2022/12/31 08:56:44;;;;;;;0.20;0.20;;;;;;;;;;4526353;28;20497;-60
2022/12/31 08:59:07;;;;;;;0.20;0.20;;;;;;;;;;4526744;28;20041;-59
2022/12/31 09:01:20;;;;;;;0.20;0.20;;;;;;;;;;4525629;28;20116;-59
2022/12/31 09:03:31;;;;;;;0.20;0.20;;;;;;;;;;4527346;28;20032;-59
2022/12/31 09:05:59;;;;;;;0.30;0.30;;;;;;;;;;4526686;28;20037;-59
2022/12/31 09:08:33;;;;;;;0.20;0.20;;;;;;;;;;4527571;28;20798;-59
2022/12/31 09:10:52;;;;;;;0.10;0.10;;;;;;;;;;4512198;28;20144;-59
2022/12/31 09:13:29;;;;;;;0.35;0.10;;;;;;;;;;4525628;28;20658;-59
2022/12/31 09:15:39;;;;;;;0.57;0.40;;;;;;;;;;4526158;28;20045;-59
2022/12/31 09:17:51;;;;;;;0.45;0.40;;;;;;;;;;4527181;28;20037;-59
2022/12/31 09:20:01;;;;;;;0.20;0.20;;;;;;;;;;4528428;28;20087;-59
2022/12/31 09:22:12;;;;;;;0.45;0.40;;;;;;;;;;4527335;28;20566;-59
2022/12/31 09:24:22;;;;;;;0.40;0.40;;;;;;;;;;4526450;28;20094;-60
2022/12/31 09:26:35;;;;;;;0.30;0.30;;;;;;;;;;4526964;28;20549;-59
2022/12/31 09:28:55;;;;;;;0.40;0.40;;;;;;;;;;4534552;28;20071;-59
2022/12/31 09:31:16;;;;;;;0.30;0.30;;;;;;;;;;4528336;28;20216;-59
2022/12/31 09:33:26;;;;;;;0.40;0.38;;;;;;;;;;4524618;28;20037;-60
2022/12/31 09:35:44;;;;;;;0.50;0.50;;;;;;;;;;4535508;28;20041;-59
2022/12/31 09:37:57;;;;;;;0.20;0.20;;;;;;;;;;4525696;28;20034;-59
2022/12/31 09:40:27;;;;;;;0.20;0.20;;;;;;;;;;4525877;28;20084;-59
2022/12/31 09:42:56;;;;;;;0.10;0.10;;;;;;;;;;4521486;28;20084;-59
2022/12/31 09:45:23;;;;;;;0.30;0.30;;;;;;;;;;4528046;28;20103;-59
2022/12/31 09:47:52;;;;;;;0.20;0.20;;;;;;;;;;4526682;28;20045;-59
2022/12/31 09:50:21;;;;;;;0.30;0.30;;;;;;;;;;4525408;28;20042;-59
2022/12/31 09:52:57;;;;;;;0.40;0.40;;;;;;;;;;4524637;28;20048;-59
2022/12/31 09:55:10;;;;;;;0.30;0.30;;;;;;;;;;4508500;28;20057;-59
2022/12/31 09:57:24;;;;;;;0.30;0.30;;;;;;;;;;4526665;28;20095;-59
2022/12/31 09:59:39;;;;;;;0.20;0.20;;;;;;;;;;4525971;28;21243;-59
2022/12/31 10:01:54;;;;;;;0.22;0.22;;;;;;;;;;4526937;28;20042;-60
2022/12/31 10:04:04;;;;;;;0.20;0.20;;;;;;;;;;4526172;28;20029;-59
2022/12/31 10:06:24;;;;;;;0.32;0.20;;;;;;;;;;4523617;28;20033;-60
2022/12/31 10:08:51;;;;;;;0.90;0.20;;;;;;;;;;4525017;28;20041;-59
2022/12/31 10:11:05;;;;;;;0.65;0.30;;;;;;;;;;4526374;28;20623;-59
2022/12/31 10:13:31;;;;;;;0.30;0.20;;;;;;;;;;4535826;28;20163;-59
2022/12/31 10:15:59;;;;;;;0.10;0.10;;;;;;;;;;4526299;28;20605;-59
2022/12/31 10:18:15;;;;;;;0.57;0.30;;;;;;;;;;4525496;28;20273;-59
2022/12/31 10:20:28;;;;;;;0.65;0.30;;;;;;;;;;4525479;28;20025;-58
2022/12/31 10:22:58;;;;;;;0.30;0.30;;;;;;;;;;4525189;28;20137;-59
2022/12/31 10:25:35;;;;;;;0.35;0.20;;;;;;;;;;4526067;28;20580;-60
2022/12/31 10:28:04;;;;;;;0.20;0.20;;;;;;;;;;4525249;28;20033;-59
2022/12/31 10:30:16;;;;;;;0.20;0.20;;;;;;;;;;4525745;28;20121;-59
2022/12/31 10:32:41;;;;;;;0.20;0.20;;;;;;;;;;4525899;28;20073;-59
2022/12/31 10:34:51;;;;;;;0.20;0.20;;;;;;;;;;4526903;28;20063;-59
2022/12/31 10:37:05;;;;;;;0.68;0.20;;;;;;;;;;4523966;28;20041;-59
2022/12/31 10:39:26;;;;;;;0.40;0.30;;;;;;;;;;4526272;28;20879;-59
2022/12/31 10:41:47;;;;;;;0.32;0.20;;;;;;;;;;4525148;28;20721;-59
2022/12/31 10:44:13;;;;;;;0.63;0.20;;;;;;;;;;4525955;28;20041;-63
2022/12/31 10:46:42;;;;;;;0.52;0.30;;;;;;;;;;4541047;28;20045;-62
2022/12/31 10:48:52;;;;;;;0.22;0.20;;;;;;;;;;4523925;28;20041;-59
2022/12/31 10:51:26;;;;;;;0.57;0.30;;;;;;;;;;4525739;28;20029;-60
2022/12/31 10:53:42;;;;;;;0.25;0.25;;;;;;;;;;4504343;28;20041;-59
2022/12/31 10:55:53;;;;;;;0.68;0.30;;;;;;;;;;4542051;28;20039;-60
2022/12/31 10:58:22;;;;;;;0.20;0.20;;;;;;;;;;4525227;28;20068;-59
2022/12/31 11:00:51;;;;;;;0.20;0.20;;;;;;;;;;4526490;28;20485;-59
2022/12/31 11:03:25;;;;;;;0.30;0.30;;;;;;;;;;4529297;28;20037;-59
2022/12/31 11:05:54;;;;;;;0.35;0.30;;;;;;;;;;4529674;28;20049;-59
2022/12/31 11:08:05;;;;;;;0.25;0.25;;;;;;;;;;4529536;28;20070;-58
2022/12/31 11:10:33;;;;;;;0.22;0.22;;;;;;;;;;4535059;28;20044;-59
2022/12/31 11:12:49;;;;;;;0.40;0.30;;;;;;;;;;4528017;28;20155;-60
2022/12/31 11:15:11;;;;;;;0.30;0.30;;;;;;;;;;4528814;28;20464;-62
2022/12/31 11:17:45;;;;;;;0.45;0.30;;;;;;;;;;4528935;28;20752;-61
2022/12/31 11:20:09;;;;;;;0.38;0.38;;;;;;;;;;4529954;28;20045;-61
2022/12/31 11:22:36;;;;;;;0.50;0.50;;;;;;;;;;4529139;28;20040;-59
2022/12/31 11:25:14;;;;;;;0.30;0.30;;;;;;;;;;4528634;28;20136;-58
2022/12/31 11:27:28;;;;;;;0.60;0.50;;;;;;;;;;4528982;28;20123;-60
2022/12/31 11:29:44;;;;;;;0.50;0.40;;;;;;;;;;4534541;28;20036;-59
2022/12/31 11:32:00;;;;;;;0.80;0.77;;;;;;;;;;4529199;28;20133;-59
2022/12/31 11:34:13;;;;;;;0.43;0.40;;;;;;;;;;4528911;28;20816;-59
2022/12/31 11:36:24;;;;;;;0.70;0.40;;;;;;;;;;4527973;28;20032;-59
2022/12/31 11:39:00;;;;;;;0.70;0.60;;;;;;;;;;4526309;28;20048;-59
2022/12/31 11:41:20;;;;;;;0.40;0.35;;;;;;;;;;4528671;28;20060;-60
2022/12/31 11:43:42;;;;;;;1.40;1.20;;;;;;;;;;4526683;28;20095;-59
2022/12/31 11:46:12;;;;;;;0.73;0.70;;;;;;;;;;4538643;28;20080;-59
2022/12/31 11:48:35;;;;;;;1.08;0.75;;;;;;;;;;4527389;28;20300;-59
2022/12/31 11:50:45;;;;;;;0.60;0.60;;;;;;;;;;4526926;28;20584;-59
2022/12/31 11:53:00;;;;;;;0.90;0.90;;;;;;;;;;4527374;28;20072;-59
2022/12/31 11:55:10;;;;;;;0.85;0.50;;;;;;;;;;4527940;28;20025;-59
2022/12/31 11:57:30;;;;;;;1.20;0.90;;;;;;;;;;4526615;28;20037;-59
2022/12/31 11:59:40;;;;;;;0.85;0.82;;;;;;;;;;4528996;28;20048;-59
2022/12/31 12:01:59;;;;;;;1.10;0.60;;;;;;;;;;4528110;28;20142;-59
2022/12/31 12:04:10;;;;;;;0.40;0.40;;;;;;;;;;4528445;28;20033;-59
2022/12/31 12:06:28;;;;;;;0.45;0.40;;;;;;;;;;4527473;28;20029;-59
2022/12/31 12:08:39;;;;;;;0.93;0.40;;;;;;;;;;4527174;28;20184;-61
2022/12/31 12:10:51;;;;;;;0.38;0.38;;;;;;;;;;4525984;28;20541;-59
2022/12/31 12:13:09;;;;;;;0.40;0.40;;;;;;;;;;4527985;28;20029;-59
2022/12/31 12:15:25;;;;;;;0.40;0.40;;;;;;;;;;4534966;28;20080;-59
2022/12/31 12:17:36;;;;;;;0.30;0.30;;;;;;;;;;4528156;28;21028;-59
2022/12/31 12:19:51;;;;;;;0.52;0.32;;;;;;;;;;4527265;28;20039;-59
2022/12/31 12:22:12;;;;;;;0.28;0.20;;;;;;;;;;4527220;28;20618;-59
2022/12/31 12:24:29;;;;;;;0.57;0.43;;;;;;;;;;4527300;28;20033;-59
2022/12/31 12:26:40;;;;;;;;;;;;;;;;;;4529851;28;20037;-59
2022/12/31 12:28:50;;;;;;;0.35;0.35;;;;;;;;;;4527326;28;19912;-59
2022/12/31 12:31:01;;;;;;;0.20;0.20;;;;;;;;;;4527319;28;20045;-59
2022/12/31 12:33:17;;;;;;;0.40;0.20;;;;;;;;;;4531860;28;20144;-60
2022/12/31 12:35:29;;;;;;;0.30;0.30;;;;;;;;;;4527800;28;20201;-59
2022/12/31 12:37:39;;;;;;;0.38;0.22;;;;;;;;;;4525985;28;20105;-59
2022/12/31 12:40:09;;;;;;;0.57;0.30;;;;;;;;;;4527157;28;20498;-59
2022/12/31 12:42:19;;;;;;;0.35;0.32;;;;;;;;;;4525934;28;20033;-59
2022/12/31 12:44:30;;;;;;;0.30;0.20;;;;;;;;;;4527247;28;20037;-59
2022/12/31 12:46:46;;;;;;;0.52;0.30;;;;;;;;;;4530660;28;20489;-59
2022/12/31 12:48:57;;;;;;;0.98;0.70;;;;;;;;;;4526786;28;20041;-59
2022/12/31 12:51:29;;;;;;;0.47;0.47;;;;;;;;;;4527208;28;20030;-59
2022/12/31 12:53:55;;;;;;;0.40;0.40;;;;;;;;;;4528264;28;21054;-59
2022/12/31 12:56:05;;;;;;;0.50;0.40;;;;;;;;;;4525781;28;20046;-59
2022/12/31 12:58:22;;;;;;;0.63;0.60;;;;;;;;;;4526449;28;20045;-59
2022/12/31 13:00:51;;;;;;;1.85;0.40;;;;;;;;;;4526682;28;20036;-59
2022/12/31 13:03:11;;;;;;;1.02;0.80;;;;;;;;;;4526351;28;20034;-59
2022/12/31 13:05:34;;;;;;;2.83;1.90;;;;;;;;;;4527306;28;20512;-59
2022/12/31 13:08:03;;;;;;;0.70;0.60;;;;;;;;;;4526978;28;20497;-59
2022/12/31 13:10:32;;;;;;;0.30;0.30;;;;;;;;;;4527380;28;20607;-59
2022/12/31 13:12:51;;;;;;;0.57;0.40;;;;;;;;;;4527832;28;20038;-59
2022/12/31 13:15:05;;;;;;;0.75;0.60;;;;;;;;;;4528857;28;20524;-59
2022/12/31 13:17:43;;;;;;;0.40;0.30;;;;;;;;;;4525493;28;20037;-59
2022/12/31 13:20:09;;;;;;;0.47;0.47;;;;;;;;;;4526818;28;20041;-59
2022/12/31 13:22:19;;;;;;;0.40;0.40;;;;;;;;;;4526904;28;20051;-59
2022/12/31 13:24:30;;;;;;;0.30;0.30;;;;;;;;;;4526693;28;20076;-59
2022/12/31 13:26:46;;;;;;;0.93;0.50;;;;;;;;;;4527998;28;20060;-59
2022/12/31 13:28:57;;;;;;;0.30;0.30;;;;;;;;;;4526252;28;20575;-60
2022/12/31 13:31:16;;;;;;;0.40;0.40;;;;;;;;;;4525559;28;20037;-59
2022/12/31 13:33:36;;;;;;;0.40;0.40;;;;;;;;;;4526487;28;20095;-59
2022/12/31 13:35:49;;;;;;;0.30;0.30;;;;;;;;;;4525923;28;20041;-59
2022/12/31 13:38:04;;;;;;;0.60;0.52;;;;;;;;;;4526188;28;20075;-59
2022/12/31 13:40:24;;;;;;;0.50;0.50;;;;;;;;;;4541366;28;20136;-60
2022/12/31 13:42:50;;;;;;;0.60;0.40;;;;;;;;;;4525629;28;20099;-58